sensor_id;sensor_type;location;lat;lon;timestamp;pressure;altitude;pressure_sealevel;temperature
80581;BMP180;1474;51.460;7.150;2023-09-19T14:40:38;100015.00;;;19.30
80581;BMP180;1474;51.460;7.150;2023-09-19T14:44:03;100025.00;;;19.20
80581;BMP180;1474;51.460;7.150;2023-09-19T14:52:07;100021.00;;;19.20
80581;BMP180;1474;51.460;7.150;2023-09-19T14:55:03;100013.00;;;19.20
80581;BMP180;1474;51.460;7.150;2023-09-19T14:57:33;100024.00;;;19.10
80581;BMP180;1474;51.460;7.150;2023-09-19T15:00:05;100028.00;;;19.00
80581;BMP180;1474;51.460;7.150;2023-09-19T15:02:35;100035.00;;;19.00
80581;BMP180;1474;51.460;7.150;2023-09-19T15:05:01;100043.00;;;19.00
80581;BMP180;1474;51.460;7.150;2023-09-19T15:07:32;100016.00;;;19.00
80581;BMP180;1474;51.460;7.150;2023-09-19T15:09:59;100015.00;;;19.00
80581;BMP180;1474;51.460;7.150;2023-09-19T15:12:26;100039.00;;;19.00
80581;BMP180;1474;51.460;7.150;2023-09-19T15:14:55;100038.00;;;18.90
80581;BMP180;1474;51.460;7.150;2023-09-19T15:17:25;100038.00;;;18.80
80581;BMP180;1474;51.460;7.150;2023-09-19T15:19:52;100036.00;;;18.80
80581;BMP180;1474;51.460;7.150;2023-09-19T15:22:23;100046.00;;;18.80
80581;BMP180;1474;51.460;7.150;2023-09-19T15:24:50;100027.00;;;18.80
80581;BMP180;1474;51.460;7.150;2023-09-19T15:27:18;100032.00;;;18.80
80581;BMP180;1474;51.460;7.150;2023-09-19T15:29:49;100034.00;;;18.80
80581;BMP180;1474;51.460;7.150;2023-09-19T15:32:18;100030.00;;;18.70
80581;BMP180;1474;51.460;7.150;2023-09-19T15:34:47;100031.00;;;18.70
80581;BMP180;1474;51.460;7.150;2023-09-19T15:37:16;100025.00;;;18.70
80581;BMP180;1474;51.460;7.150;2023-09-19T15:39:52;100022.00;;;18.80
80581;BMP180;1474;51.460;7.150;2023-09-19T15:42:26;100024.00;;;18.90
80581;BMP180;1474;51.460;7.150;2023-09-19T15:45:13;100012.00;;;18.90
80581;BMP180;1474;51.460;7.150;2023-09-19T15:47:49;99999.00;;;18.90
80581;BMP180;1474;51.460;7.150;2023-09-19T15:50:16;99996.00;;;18.90
80581;BMP180;1474;51.460;7.150;2023-09-19T15:52:51;99999.00;;;19.10
80581;BMP180;1474;51.460;7.150;2023-09-19T15:55:27;99994.00;;;18.90
80581;BMP180;1474;51.460;7.150;2023-09-19T15:57:56;99996.00;;;18.90
80581;BMP180;1474;51.460;7.150;2023-09-19T16:00:34;99995.00;;;18.90
80581;BMP180;1474;51.460;7.150;2023-09-19T16:03:10;99999.00;;;18.80
80581;BMP180;1474;51.460;7.150;2023-09-19T16:05:43;99999.00;;;18.80
80581;BMP180;1474;51.460;7.150;2023-09-19T16:08:15;99998.00;;;18.80
80581;BMP180;1474;51.460;7.150;2023-09-19T16:10:43;100013.00;;;18.80
80581;BMP180;1474;51.460;7.150;2023-09-19T16:13:09;100014.00;;;18.70
80581;BMP180;1474;51.460;7.150;2023-09-19T16:15:42;100012.00;;;18.50
80581;BMP180;1474;51.460;7.150;2023-09-19T16:18:27;100012.00;;;18.40
80581;BMP180;1474;51.460;7.150;2023-09-19T16:21:08;100008.00;;;18.40
80581;BMP180;1474;51.460;7.150;2023-09-19T16:23:37;100013.00;;;18.30
80581;BMP180;1474;51.460;7.150;2023-09-19T16:26:16;100018.00;;;18.40
80581;BMP180;1474;51.460;7.150;2023-09-19T16:28:52;100010.00;;;18.30
80581;BMP180;1474;51.460;7.150;2023-09-19T16:31:25;100019.00;;;18.30
80581;BMP180;1474;51.460;7.150;2023-09-19T16:34:09;100018.00;;;18.30
80581;BMP180;1474;51.460;7.150;2023-09-19T16:36:48;100021.00;;;18.30
80581;BMP180;1474;51.460;7.150;2023-09-19T16:39:20;100034.00;;;18.20
80581;BMP180;1474;51.460;7.150;2023-09-19T16:41:46;100015.00;;;18.30
80581;BMP180;1474;51.460;7.150;2023-09-19T16:44:13;100019.00;;;18.20
80581;BMP180;1474;51.460;7.150;2023-09-19T16:46:39;100027.00;;;18.10
80581;BMP180;1474;51.460;7.150;2023-09-19T16:49:09;100023.00;;;18.10
80581;BMP180;1474;51.460;7.150;2023-09-19T16:51:35;100016.00;;;18.10
80581;BMP180;1474;51.460;7.150;2023-09-19T16:54:03;100019.00;;;18.10
80581;BMP180;1474;51.460;7.150;2023-09-19T16:56:31;100013.00;;;18.10
80581;BMP180;1474;51.460;7.150;2023-09-19T16:58:59;100011.00;;;18.10
80581;BMP180;1474;51.460;7.150;2023-09-19T17:01:27;100013.00;;;18.20
80581;BMP180;1474;51.460;7.150;2023-09-19T17:03:54;100008.00;;;18.10
80581;BMP180;1474;51.460;7.150;2023-09-19T17:06:34;100010.00;;;18.10
80581;BMP180;1474;51.460;7.150;2023-09-19T17:09:10;100011.00;;;18.20
80581;BMP180;1474;51.460;7.150;2023-09-19T17:11:42;100006.00;;;18.20
80581;BMP180;1474;51.460;7.150;2023-09-19T17:14:11;100018.00;;;18.10
80581;BMP180;1474;51.460;7.150;2023-09-19T17:16:38;100024.00;;;18.10
80581;BMP180;1474;51.460;7.150;2023-09-19T17:19:17;100012.00;;;18.10
80581;BMP180;1474;51.460;7.150;2023-09-19T17:21:55;100016.00;;;18.00
80581;BMP180;1474;51.460;7.150;2023-09-19T17:24:23;100014.00;;;18.00
80581;BMP180;1474;51.460;7.150;2023-09-19T17:26:50;100025.00;;;17.90
80581;BMP180;1474;51.460;7.150;2023-09-19T17:29:21;100017.00;;;18.00
80581;BMP180;1474;51.460;7.150;2023-09-19T17:31:55;100021.00;;;18.10
80581;BMP180;1474;51.460;7.150;2023-09-19T17:34:24;100019.00;;;18.10
80581;BMP180;1474;51.460;7.150;2023-09-19T17:36:50;100029.00;;;18.10
80581;BMP180;1474;51.460;7.150;2023-09-19T17:39:17;100021.00;;;18.10
80581;BMP180;1474;51.460;7.150;2023-09-19T17:41:49;100017.00;;;18.10
80581;BMP180;1474;51.460;7.150;2023-09-19T17:44:22;100020.00;;;18.10
80581;BMP180;1474;51.460;7.150;2023-09-19T17:46:53;100018.00;;;18.10
80581;BMP180;1474;51.460;7.150;2023-09-19T17:49:23;100017.00;;;18.10
80581;BMP180;1474;51.460;7.150;2023-09-19T17:51:56;100021.00;;;18.10
80581;BMP180;1474;51.460;7.150;2023-09-19T17:54:23;100013.00;;;18.10
80581;BMP180;1474;51.460;7.150;2023-09-19T17:56:56;100029.00;;;18.00
80581;BMP180;1474;51.460;7.150;2023-09-19T17:59:26;100016.00;;;18.00
80581;BMP180;1474;51.460;7.150;2023-09-19T18:01:56;100029.00;;;18.10
80581;BMP180;1474;51.460;7.150;2023-09-19T18:04:26;100024.00;;;18.10
80581;BMP180;1474;51.460;7.150;2023-09-19T18:06:56;100029.00;;;18.00
80581;BMP180;1474;51.460;7.150;2023-09-19T18:09:23;100029.00;;;18.00
80581;BMP180;1474;51.460;7.150;2023-09-19T18:11:50;100037.00;;;18.10
80581;BMP180;1474;51.460;7.150;2023-09-19T18:14:22;100029.00;;;18.00
80581;BMP180;1474;51.460;7.150;2023-09-19T18:16:50;100037.00;;;18.10
80581;BMP180;1474;51.460;7.150;2023-09-19T18:19:26;100034.00;;;18.00
80581;BMP180;1474;51.460;7.150;2023-09-19T18:21:53;100032.00;;;17.90
80581;BMP180;1474;51.460;7.150;2023-09-19T18:24:19;100038.00;;;18.00
80581;BMP180;1474;51.460;7.150;2023-09-19T18:26:54;100038.00;;;18.10
80581;BMP180;1474;51.460;7.150;2023-09-19T18:29:23;100034.00;;;18.00
80581;BMP180;1474;51.460;7.150;2023-09-19T18:31:49;100041.00;;;18.00
80581;BMP180;1474;51.460;7.150;2023-09-19T18:34:18;100053.00;;;18.00
80581;BMP180;1474;51.460;7.150;2023-09-19T18:36:51;100042.00;;;18.00
80581;BMP180;1474;51.460;7.150;2023-09-19T18:39:29;100047.00;;;18.00
80581;BMP180;1474;51.460;7.150;2023-09-19T18:42:00;100042.00;;;17.90
80581;BMP180;1474;51.460;7.150;2023-09-19T18:44:33;100058.00;;;18.00
80581;BMP180;1474;51.460;7.150;2023-09-19T18:47:12;100053.00;;;18.00
80581;BMP180;1474;51.460;7.150;2023-09-19T18:49:43;100055.00;;;18.00
80581;BMP180;1474;51.460;7.150;2023-09-19T18:52:11;100046.00;;;18.10
80581;BMP180;1474;51.460;7.150;2023-09-19T18:54:39;100048.00;;;18.00
80581;BMP180;1474;51.460;7.150;2023-09-19T18:57:08;100043.00;;;18.00
80581;BMP180;1474;51.460;7.150;2023-09-19T18:59:38;100045.00;;;17.80
80581;BMP180;1474;51.460;7.150;2023-09-19T19:02:08;100041.00;;;17.80
80581;BMP180;1474;51.460;7.150;2023-09-19T19:04:37;100037.00;;;17.80
80581;BMP180;1474;51.460;7.150;2023-09-19T19:07:09;100042.00;;;17.80
80581;BMP180;1474;51.460;7.150;2023-09-19T19:09:52;100040.00;;;17.70
80581;BMP180;1474;51.460;7.150;2023-09-19T19:12:22;100032.00;;;17.70
80581;BMP180;1474;51.460;7.150;2023-09-19T19:14:52;100037.00;;;17.60
80581;BMP180;1474;51.460;7.150;2023-09-19T19:17:23;100040.00;;;17.70
80581;BMP180;1474;51.460;7.150;2023-09-19T19:20:05;100036.00;;;17.70
80581;BMP180;1474;51.460;7.150;2023-09-19T19:22:36;100033.00;;;17.80
80581;BMP180;1474;51.460;7.150;2023-09-19T19:25:08;100031.00;;;17.70
80581;BMP180;1474;51.460;7.150;2023-09-19T19:27:37;100035.00;;;17.70
80581;BMP180;1474;51.460;7.150;2023-09-19T19:30:04;100038.00;;;17.80
80581;BMP180;1474;51.460;7.150;2023-09-19T19:32:32;100036.00;;;17.70
80581;BMP180;1474;51.460;7.150;2023-09-19T19:35:02;100042.00;;;17.80
80581;BMP180;1474;51.460;7.150;2023-09-19T19:37:36;100037.00;;;17.70
80581;BMP180;1474;51.460;7.150;2023-09-19T19:40:04;100037.00;;;17.70
80581;BMP180;1474;51.460;7.150;2023-09-19T19:42:39;100050.00;;;17.70
80581;BMP180;1474;51.460;7.150;2023-09-19T19:45:10;100040.00;;;17.70
80581;BMP180;1474;51.460;7.150;2023-09-19T19:47:44;100047.00;;;17.70
80581;BMP180;1474;51.460;7.150;2023-09-19T19:50:25;100050.00;;;17.70
80581;BMP180;1474;51.460;7.150;2023-09-19T19:52:54;100044.00;;;17.70
80581;BMP180;1474;51.460;7.150;2023-09-19T19:55:23;100044.00;;;17.80
80581;BMP180;1474;51.460;7.150;2023-09-19T19:57:54;100050.00;;;17.70
80581;BMP180;1474;51.460;7.150;2023-09-19T20:00:24;100053.00;;;17.70
80581;BMP180;1474;51.460;7.150;2023-09-19T20:02:52;100061.00;;;17.80
80581;BMP180;1474;51.460;7.150;2023-09-19T20:05:19;100059.00;;;17.70
80581;BMP180;1474;51.460;7.150;2023-09-19T20:07:52;100052.00;;;17.70
80581;BMP180;1474;51.460;7.150;2023-09-19T20:10:22;100053.00;;;17.70
80581;BMP180;1474;51.460;7.150;2023-09-19T20:12:51;100057.00;;;17.70
80581;BMP180;1474;51.460;7.150;2023-09-19T20:15:18;100050.00;;;17.70
80581;BMP180;1474;51.460;7.150;2023-09-19T20:17:46;100051.00;;;17.60
80581;BMP180;1474;51.460;7.150;2023-09-19T20:20:12;100051.00;;;17.70
80581;BMP180;1474;51.460;7.150;2023-09-19T20:22:46;100047.00;;;17.70
80581;BMP180;1474;51.460;7.150;2023-09-19T20:25:15;100054.00;;;17.70
80581;BMP180;1474;51.460;7.150;2023-09-19T20:27:44;100045.00;;;17.70
80581;BMP180;1474;51.460;7.150;2023-09-19T20:30:17;100054.00;;;17.60
80581;BMP180;1474;51.460;7.150;2023-09-19T20:32:49;100056.00;;;17.60
80581;BMP180;1474;51.460;7.150;2023-09-19T20:35:23;100058.00;;;17.60
80581;BMP180;1474;51.460;7.150;2023-09-19T20:37:53;100052.00;;;17.60
80581;BMP180;1474;51.460;7.150;2023-09-19T20:40:26;100053.00;;;17.60
80581;BMP180;1474;51.460;7.150;2023-09-19T20:42:56;100054.00;;;17.60
80581;BMP180;1474;51.460;7.150;2023-09-19T20:45:25;100054.00;;;17.60
80581;BMP180;1474;51.460;7.150;2023-09-19T20:47:55;100045.00;;;17.60
80581;BMP180;1474;51.460;7.150;2023-09-19T20:50:27;100060.00;;;17.50
